createdAt,value
2017-05-18T00:00:02.001Z,3.54
2017-05-18T00:02:33.083Z,2.90
2017-05-18T00:05:03.868Z,3.32
2017-05-18T00:07:34.724Z,2.26
2017-05-18T00:10:05.547Z,3.36
2017-05-18T00:12:36.175Z,4.98
2017-05-18T00:15:06.906Z,3.06
2017-05-18T00:17:37.807Z,3.38
2017-05-18T00:20:08.598Z,3.18
2017-05-18T00:22:40.697Z,3.48
2017-05-18T00:25:11.289Z,2.72
2017-05-18T00:27:41.951Z,2.32
2017-05-18T00:30:13.927Z,2.12
2017-05-18T00:32:44.949Z,2.46
2017-05-18T00:35:15.735Z,1.70
2017-05-18T00:37:46.620Z,1.90
2017-05-18T00:40:18.055Z,2.40
2017-05-18T00:42:49.660Z,2.72
2017-05-18T00:45:21.016Z,3.56
2017-05-18T00:47:52.621Z,2.70
2017-05-18T00:50:26.895Z,2.72
2017-05-18T00:52:57.705Z,2.58
2017-05-18T00:55:28.604Z,2.84
2017-05-18T00:57:59.428Z,2.52
2017-05-18T01:00:30.177Z,2.56
2017-05-18T01:03:01.104Z,2.28
2017-05-18T01:05:32.161Z,2.22
2017-05-18T01:08:03.121Z,2.58
2017-05-18T01:10:33.776Z,5.42
2017-05-18T01:13:04.491Z,3.78
2017-05-18T01:15:35.082Z,4.18
2017-05-18T01:18:05.752Z,2.88
2017-05-18T01:20:36.773Z,4.32
2017-05-18T01:23:07.555Z,4.96
2017-05-18T01:25:38.321Z,4.20
2017-05-18T01:28:08.998Z,2.30
2017-05-18T01:30:39.684Z,2.78
2017-05-18T01:33:10.652Z,3.38
2017-05-18T01:35:41.581Z,3.80
2017-05-18T01:38:12.411Z,3.82
2017-05-18T01:40:43.176Z,4.30
2017-05-18T01:43:13.937Z,3.62
2017-05-18T01:45:45.668Z,4.56
2017-05-18T01:48:16.603Z,4.22
2017-05-18T01:50:48.290Z,5.18
2017-05-18T01:53:19.784Z,4.42
2017-05-18T01:55:50.676Z,6.10
2017-05-18T01:58:21.425Z,7.24
2017-05-18T02:00:52.905Z,4.86
2017-05-18T02:03:23.840Z,4.44
2017-05-18T02:05:54.581Z,5.56
2017-05-18T02:08:25.411Z,5.68
2017-05-18T02:10:55.960Z,7.10
2017-05-18T02:13:26.668Z,7.16
2017-05-18T02:15:57.518Z,7.26
2017-05-18T02:18:28.488Z,6.58
2017-05-18T02:20:59.204Z,5.30
2017-05-18T02:23:29.950Z,4.44
2017-05-18T02:26:00.565Z,4.92
2017-05-18T02:28:31.279Z,3.62
2017-05-18T02:31:02.845Z,3.48
2017-05-18T02:33:33.674Z,4.28
2017-05-18T02:36:04.298Z,3.68
2017-05-18T02:38:35.661Z,3.94
2017-05-18T02:41:06.451Z,3.12
2017-05-18T02:43:37.934Z,4.28
2017-05-18T02:46:08.587Z,4.40
2017-05-18T02:48:39.508Z,4.76
2017-05-18T02:51:11.271Z,3.50
2017-05-18T02:53:42.305Z,4.00
2017-05-18T02:56:12.929Z,4.42
2017-05-18T02:58:43.791Z,3.60
2017-05-18T03:01:14.530Z,4.46
2017-05-18T03:03:45.406Z,4.72
2017-05-18T03:06:16.298Z,5.00
2017-05-18T03:08:47.260Z,5.02
2017-05-18T03:11:17.837Z,5.34
2017-05-18T03:13:48.195Z,4.94
2017-05-18T03:16:19.243Z,4.60
2017-05-18T03:18:49.755Z,4.70
2017-05-18T03:21:20.642Z,3.94
2017-05-18T03:23:51.387Z,4.68
2017-05-18T03:26:22.127Z,5.90
2017-05-18T03:28:53.182Z,4.88
2017-05-18T03:31:24.407Z,5.18
2017-05-18T03:33:55.233Z,9.74
2017-05-18T03:36:26.037Z,9.60
2017-05-18T03:38:57.181Z,10.28
2017-05-18T03:41:28.162Z,11.28
2017-05-18T03:43:59.220Z,17.64
2017-05-18T03:46:29.895Z,13.34
2017-05-18T03:49:00.647Z,11.96
2017-05-18T03:51:32.799Z,11.60
2017-05-18T03:54:03.439Z,9.60
2017-05-18T03:56:34.230Z,10.94
2017-05-18T03:59:05.383Z,8.18
2017-05-18T04:01:36.609Z,7.30
2017-05-18T04:04:07.487Z,10.98
2017-05-18T04:06:38.232Z,8.68
2017-05-18T04:09:08.839Z,10.66
2017-05-18T04:11:39.699Z,9.90
2017-05-18T04:14:10.638Z,9.80
2017-05-18T04:16:41.382Z,9.46
2017-05-18T04:19:12.215Z,9.22
2017-05-18T04:21:42.860Z,10.60
2017-05-18T04:24:13.448Z,10.08
2017-05-18T04:26:44.387Z,10.56
2017-05-18T04:29:15.032Z,10.00
2017-05-18T04:31:45.795Z,11.86
2017-05-18T04:34:16.712Z,8.22
2017-05-18T04:36:47.297Z,11.16
2017-05-18T04:39:18.164Z,10.22
2017-05-18T04:41:48.971Z,9.30
2017-05-18T04:44:20.026Z,10.70
2017-05-18T04:46:51.700Z,8.22
2017-05-18T04:49:22.629Z,7.08
2017-05-18T04:51:54.700Z,8.54
2017-05-18T04:54:25.402Z,10.14
2017-05-18T04:56:56.346Z,9.06
2017-05-18T04:59:28.035Z,6.82
2017-05-18T05:01:59.069Z,9.78
2017-05-18T05:04:29.894Z,7.20
2017-05-18T05:07:00.595Z,7.60
2017-05-18T05:09:31.317Z,6.40
2017-05-18T05:12:02.171Z,6.40
2017-05-18T05:14:33.275Z,6.20
2017-05-18T05:17:04.261Z,4.74
2017-05-18T05:19:35.773Z,4.92
2017-05-18T05:22:06.283Z,4.68
2017-05-18T05:24:36.997Z,4.94
2017-05-18T05:27:08.359Z,3.90
2017-05-18T05:29:39.046Z,5.32
2017-05-18T05:32:09.978Z,6.58
2017-05-18T05:34:41.015Z,7.10
2017-05-18T05:37:12.420Z,6.02
2017-05-18T05:39:43.360Z,5.62
2017-05-18T05:42:14.500Z,4.78
2017-05-18T05:44:45.632Z,4.52
2017-05-18T05:47:16.072Z,4.44
2017-05-18T05:49:47.021Z,5.12
2017-05-18T05:52:24.326Z,4.50
2017-05-18T05:54:55.247Z,4.68
2017-05-18T05:57:26.284Z,5.94
2017-05-18T05:59:57.217Z,12.58
2017-05-18T06:02:28.352Z,21.80
2017-05-18T06:04:59.428Z,31.26
2017-05-18T06:07:30.557Z,42.84
2017-05-18T06:10:01.287Z,30.08
2017-05-18T06:12:31.872Z,22.94
2017-05-18T06:15:02.904Z,21.60
2017-05-18T06:17:33.647Z,16.90
2017-05-18T06:20:04.469Z,12.94
2017-05-18T06:22:35.221Z,13.06
2017-05-18T06:25:05.949Z,10.76
2017-05-18T06:27:36.352Z,10.02
2017-05-18T06:30:07.020Z,10.74
2017-05-18T06:32:37.979Z,8.80
2017-05-18T06:35:08.389Z,8.58
2017-05-18T06:37:40.289Z,6.95
2017-05-18T06:40:11.249Z,6.50
2017-05-18T06:42:42.223Z,11.28
2017-05-18T06:45:13.527Z,22.08
2017-05-18T06:47:43.962Z,26.80
2017-05-18T06:50:14.535Z,21.90
2017-05-18T06:52:46.772Z,20.33
2017-05-18T06:55:18.551Z,27.07
2017-05-18T06:57:49.448Z,27.60
2017-05-18T07:00:20.372Z,24.78
2017-05-18T07:02:51.324Z,10.80
2017-05-18T07:05:22.331Z,8.75
2017-05-18T07:07:52.859Z,7.23
2017-05-18T07:10:23.344Z,8.00
2017-05-18T07:12:53.939Z,6.70
2017-05-18T07:15:24.631Z,4.50
2017-05-18T07:17:55.387Z,4.10
2017-05-18T07:20:26.027Z,3.63
2017-05-18T07:22:56.867Z,3.27
2017-05-18T07:25:28.308Z,2.82
2017-05-18T07:27:59.881Z,3.25
2017-05-18T07:30:30.496Z,3.70
2017-05-18T07:33:00.996Z,3.97
2017-05-18T07:35:31.644Z,4.38
2017-05-18T07:38:02.317Z,4.65
2017-05-18T07:40:33.353Z,10.05
2017-05-18T07:43:04.218Z,14.70
2017-05-18T07:45:34.878Z,10.82
2017-05-18T07:48:05.385Z,9.63
2017-05-18T07:50:36.347Z,7.60
2017-05-18T07:53:08.371Z,6.22
2017-05-18T07:55:39.305Z,5.15
2017-05-18T07:58:09.776Z,4.20
2017-05-18T08:00:40.611Z,5.13
2017-05-18T08:03:11.379Z,5.28
2017-05-18T08:05:42.196Z,4.60
2017-05-18T08:08:12.836Z,3.72
2017-05-18T08:10:43.669Z,3.55
2017-05-18T08:13:14.217Z,4.53
2017-05-18T08:15:45.562Z,5.82
2017-05-18T08:18:16.369Z,7.40
2017-05-18T08:20:47.278Z,7.47
2017-05-18T08:23:18.047Z,12.85
2017-05-18T08:25:48.666Z,14.80
2017-05-18T08:28:19.171Z,14.35
2017-05-18T08:30:49.803Z,11.48
2017-05-18T08:33:20.627Z,7.87
2017-05-18T08:35:52.212Z,7.62
2017-05-18T08:38:23.175Z,6.82
2017-05-18T08:40:53.819Z,6.28
2017-05-18T08:43:24.191Z,6.83
2017-05-18T08:45:55.174Z,5.50
2017-05-18T08:48:25.762Z,6.13
2017-05-18T08:50:56.360Z,5.40
2017-05-18T08:53:28.057Z,4.32
2017-05-18T08:55:58.571Z,4.72
2017-05-18T08:58:29.523Z,4.27
2017-05-18T09:01:00.337Z,4.07
2017-05-18T09:03:30.769Z,4.93
2017-05-18T09:06:01.469Z,6.85
2017-05-18T09:08:32.874Z,8.13
2017-05-18T09:11:03.519Z,13.45
2017-05-18T09:13:34.360Z,9.62
2017-05-18T09:16:04.988Z,8.08
2017-05-18T09:18:35.843Z,5.73
2017-05-18T09:21:06.599Z,10.37
2017-05-18T09:23:37.257Z,8.85
2017-05-18T09:26:07.867Z,10.27
2017-05-18T09:28:39.210Z,9.97
2017-05-18T09:31:09.981Z,9.03
2017-05-18T09:33:40.783Z,22.97
2017-05-18T09:36:11.851Z,56.18
2017-05-18T09:38:42.210Z,20.53
2017-05-18T09:41:15.887Z,11.23
2017-05-18T09:43:46.691Z,6.58
2017-05-18T09:46:17.023Z,6.58
2017-05-18T09:48:47.742Z,9.28
2017-05-18T09:51:18.608Z,15.23
2017-05-18T09:53:50.607Z,49.18
2017-05-18T09:56:21.573Z,31.13
2017-05-18T09:58:53.082Z,21.32
2017-05-18T10:01:23.780Z,14.10
2017-05-18T10:03:54.783Z,10.50
2017-05-18T10:06:25.307Z,8.42
2017-05-18T10:08:56.351Z,7.65
2017-05-18T10:11:27.087Z,8.60
2017-05-18T10:13:57.999Z,9.08
2017-05-18T10:16:29.428Z,5.60
2017-05-18T10:19:00.060Z,13.77
2017-05-18T10:21:30.705Z,11.63
2017-05-18T10:24:01.355Z,9.82
2017-05-18T10:26:32.257Z,8.85
2017-05-18T10:29:02.800Z,25.53
2017-05-18T10:31:33.611Z,28.48
2017-05-18T10:34:03.912Z,14.92
2017-05-18T10:36:34.667Z,14.32
2017-05-18T10:39:05.810Z,8.83
2017-05-18T10:41:37.260Z,7.30
2017-05-18T10:44:07.662Z,6.17
2017-05-18T10:46:38.391Z,6.97
2017-05-18T10:49:08.827Z,6.60
2017-05-18T10:51:40.484Z,5.28
2017-05-18T10:54:12.471Z,4.37
2017-05-18T10:56:43.455Z,5.88
2017-05-18T10:59:14.172Z,7.50
2017-05-18T11:01:44.784Z,5.92
2017-05-18T11:04:15.529Z,6.30
2017-05-18T11:06:46.631Z,6.98
2017-05-18T11:09:17.571Z,5.70
2017-05-18T11:11:48.359Z,5.53
2017-05-18T11:14:19.218Z,4.88
2017-05-18T11:16:50.181Z,4.85
2017-05-18T11:19:21.009Z,4.68
2017-05-18T11:21:51.236Z,3.97
2017-05-18T11:24:22.056Z,3.62
2017-05-18T11:26:52.698Z,6.02
2017-05-18T11:29:23.376Z,5.57
2017-05-18T11:31:54.061Z,6.05
2017-05-18T11:34:24.645Z,5.28
2017-05-18T11:36:55.511Z,4.90
2017-05-18T11:39:26.534Z,5.45
2017-05-18T11:41:57.211Z,6.82
2017-05-18T11:44:27.846Z,5.43
2017-05-18T11:46:58.577Z,7.30
2017-05-18T11:49:29.417Z,8.95
2017-05-18T11:52:00.267Z,6.38
2017-05-18T11:54:32.042Z,4.87
2017-05-18T11:57:02.825Z,4.93
2017-05-18T11:59:33.585Z,5.03
2017-05-18T12:02:04.016Z,4.45
2017-05-18T12:04:34.760Z,4.42
2017-05-18T12:07:05.490Z,4.40
2017-05-18T12:09:36.222Z,5.72
2017-05-18T12:12:07.594Z,5.82
2017-05-18T12:14:38.125Z,4.44
2017-05-18T12:17:08.980Z,4.50
2017-05-18T12:19:39.720Z,6.03
2017-05-18T12:22:10.656Z,5.10
2017-05-18T12:24:41.300Z,4.44
2017-05-18T12:27:11.990Z,4.68
2017-05-18T12:29:42.751Z,5.80
2017-05-18T12:32:13.737Z,5.18
2017-05-18T12:34:45.454Z,4.94
2017-05-18T12:37:16.118Z,5.32
2017-05-18T12:39:46.625Z,4.35
2017-05-18T12:42:17.433Z,5.08
2017-05-18T12:44:48.024Z,5.12
2017-05-18T12:47:18.964Z,4.94
2017-05-18T12:49:49.476Z,5.42
2017-05-18T12:52:20.188Z,4.82
2017-05-18T12:54:51.715Z,4.12
2017-05-18T12:57:22.723Z,7.10
2017-05-18T12:59:53.510Z,6.52
2017-05-18T13:02:24.017Z,6.42
2017-05-18T13:04:54.892Z,6.23
2017-05-18T13:07:25.254Z,6.26
2017-05-18T13:09:56.174Z,4.72
2017-05-18T13:12:27.039Z,5.14
2017-05-18T13:14:57.958Z,5.02
2017-05-18T13:17:28.649Z,6.38
2017-05-18T13:19:59.543Z,6.50
2017-05-18T13:22:30.414Z,6.90
2017-05-18T13:25:01.560Z,6.06
2017-05-18T13:27:32.311Z,4.66
2017-05-18T13:30:03.291Z,5.92
2017-05-18T13:32:34.827Z,4.57
2017-05-18T13:35:05.795Z,4.96
2017-05-18T13:37:36.509Z,9.30
2017-05-18T13:40:07.024Z,7.82
2017-05-18T13:42:37.852Z,7.04
2017-05-18T13:45:08.553Z,7.66
2017-05-18T13:47:39.195Z,8.02
2017-05-18T13:50:09.832Z,8.70
2017-05-18T13:52:40.804Z,9.80
2017-05-18T13:55:13.181Z,10.02
2017-05-18T13:57:44.708Z,15.02
2017-05-18T14:00:15.336Z,14.56
2017-05-18T14:02:46.337Z,13.18
2017-05-18T14:05:16.712Z,13.90
2017-05-18T14:07:47.210Z,14.92
2017-05-18T14:10:17.927Z,11.20
2017-05-18T14:12:49.693Z,13.82
2017-05-18T14:15:20.343Z,10.40
2017-05-18T14:17:51.499Z,9.58
2017-05-18T14:20:22.430Z,9.50
2017-05-18T14:22:53.241Z,9.80
2017-05-18T14:25:24.132Z,10.74
2017-05-18T14:27:55.768Z,8.56
2017-05-18T14:30:26.428Z,11.20
2017-05-18T14:32:57.360Z,12.50
2017-05-18T14:35:28.379Z,9.56
2017-05-18T14:37:58.736Z,11.50
2017-05-18T14:40:30.076Z,12.94
2017-05-18T14:43:00.976Z,17.00
2017-05-18T14:45:31.745Z,13.56
2017-05-18T14:48:03.228Z,15.88
2017-05-18T14:50:34.635Z,16.54
2017-05-18T14:53:05.531Z,15.12
2017-05-18T14:55:37.127Z,14.38
2017-05-18T14:58:08.023Z,13.04
2017-05-18T15:00:38.876Z,15.26
2017-05-18T15:03:09.667Z,12.48
2017-05-18T15:05:40.606Z,13.72
2017-05-18T15:08:11.304Z,12.08
2017-05-18T15:10:42.192Z,14.20
2017-05-18T15:13:13.152Z,11.72
2017-05-18T15:15:43.768Z,13.44
2017-05-18T15:18:14.632Z,16.48
2017-05-18T15:20:45.556Z,16.92
2017-05-18T15:23:16.367Z,13.24
2017-05-18T15:25:47.245Z,15.16
2017-05-18T15:28:18.144Z,15.32
2017-05-18T15:30:49.676Z,11.94
2017-05-18T15:33:20.405Z,12.02
2017-05-18T15:35:51.133Z,11.42
2017-05-18T15:38:22.005Z,12.84
2017-05-18T15:40:52.909Z,8.46
2017-05-18T15:43:23.624Z,8.30
2017-05-18T15:45:54.325Z,7.38
2017-05-18T15:48:25.149Z,5.92
2017-05-18T15:50:56.982Z,4.60
2017-05-18T15:53:27.749Z,7.52
2017-05-18T15:56:00.436Z,5.56
2017-05-18T15:58:32.209Z,5.86
2017-05-18T16:01:02.961Z,5.38
2017-05-18T16:03:33.830Z,7.82
2017-05-18T16:06:04.733Z,7.80
2017-05-18T16:08:35.503Z,6.36
2017-05-18T16:11:06.403Z,8.28
2017-05-18T16:13:37.132Z,5.84
2017-05-18T16:16:07.874Z,6.98
2017-05-18T16:18:38.885Z,7.30
2017-05-18T16:21:10.534Z,6.04
2017-05-18T16:23:41.639Z,6.28
2017-05-18T16:26:12.477Z,6.80
2017-05-18T16:28:43.157Z,5.94
2017-05-18T16:31:14.092Z,4.92
2017-05-18T16:33:45.102Z,5.02
2017-05-18T16:36:15.963Z,5.58
2017-05-18T16:38:47.576Z,4.78
2017-05-18T16:41:18.564Z,5.02
2017-05-18T16:43:50.187Z,4.02
2017-05-18T16:46:21.142Z,4.62
2017-05-18T16:48:52.068Z,4.30
2017-05-18T16:51:22.730Z,5.06
2017-05-18T16:53:53.583Z,3.90
2017-05-18T16:56:25.100Z,5.10
2017-05-18T16:58:56.036Z,3.74
2017-05-18T17:01:26.171Z,4.08
2017-05-18T17:03:57.134Z,4.32
2017-05-18T17:06:28.097Z,4.16
2017-05-18T17:08:58.882Z,4.28
2017-05-18T17:11:29.511Z,4.28
2017-05-18T17:14:00.266Z,4.50
2017-05-18T17:16:30.851Z,3.82
2017-05-18T17:19:02.579Z,4.04
2017-05-18T17:21:33.403Z,4.56
2017-05-18T17:24:04.353Z,4.32
2017-05-18T17:26:35.222Z,4.58
2017-05-18T17:29:06.098Z,4.12
2017-05-18T17:31:36.770Z,4.36
2017-05-18T17:34:07.540Z,4.22
2017-05-18T17:36:38.389Z,4.28
2017-05-18T17:39:09.308Z,3.60
2017-05-18T17:41:40.147Z,3.90
2017-05-18T17:44:11.063Z,2.64
2017-05-18T17:46:41.772Z,3.10
2017-05-18T17:49:12.466Z,4.06
2017-05-18T17:51:43.045Z,3.50
2017-05-18T17:54:13.708Z,3.70
2017-05-18T17:56:46.091Z,4.52
2017-05-18T17:59:16.923Z,3.86
2017-05-18T18:01:47.600Z,4.70
2017-05-18T18:04:18.667Z,4.84
2017-05-18T18:06:49.426Z,4.00
2017-05-18T18:09:20.121Z,4.80
2017-05-18T18:11:50.964Z,5.92
2017-05-18T18:14:22.060Z,5.94
2017-05-18T18:16:52.854Z,3.98
2017-05-18T18:19:23.620Z,5.66
2017-05-18T18:21:55.019Z,5.10
2017-05-18T18:24:26.008Z,5.54
2017-05-18T18:26:56.490Z,5.02
2017-05-18T18:29:27.136Z,5.04
2017-05-18T18:31:57.837Z,4.90
2017-05-18T18:34:28.711Z,7.24
2017-05-18T18:36:59.300Z,7.06
2017-05-18T18:39:30.162Z,5.96
2017-05-18T18:42:01.003Z,4.94
2017-05-18T18:44:31.602Z,4.98
2017-05-18T18:47:02.492Z,5.40
2017-05-18T18:49:33.492Z,7.08
2017-05-18T18:52:04.416Z,5.80
2017-05-18T18:54:35.394Z,5.32
2017-05-18T18:57:07.885Z,5.28
2017-05-18T18:59:38.764Z,4.22
2017-05-18T19:02:09.775Z,5.42
2017-05-18T19:04:40.547Z,5.78
2017-05-18T19:07:12.236Z,4.70
2017-05-18T19:09:43.123Z,6.28
2017-05-18T19:12:14.771Z,5.50
2017-05-18T19:14:45.679Z,6.60
2017-05-18T19:17:16.382Z,5.58
2017-05-18T19:19:47.399Z,5.48
2017-05-18T19:22:18.033Z,5.04
2017-05-18T19:24:48.593Z,4.70
2017-05-18T19:27:19.528Z,5.22
2017-05-18T19:29:50.365Z,4.80
2017-05-18T19:32:21.182Z,4.98
2017-05-18T19:34:51.932Z,5.82
2017-05-18T19:37:22.857Z,5.10
2017-05-18T19:39:53.874Z,4.78
2017-05-18T19:42:24.736Z,3.26
2017-05-18T19:44:55.472Z,3.36
2017-05-18T19:47:26.333Z,3.68
2017-05-18T19:49:56.880Z,3.18
2017-05-18T19:52:27.504Z,2.72
2017-05-18T19:54:58.748Z,3.92
2017-05-18T19:57:30.706Z,4.06
2017-05-18T20:00:01.796Z,5.80
2017-05-18T20:02:32.277Z,4.34
2017-05-18T20:05:03.083Z,4.04
2017-05-18T20:07:34.796Z,3.72
2017-05-18T20:10:05.610Z,4.02
2017-05-18T20:12:36.333Z,4.16
2017-05-18T20:15:07.078Z,3.80
2017-05-18T20:17:37.728Z,3.98
2017-05-18T20:20:08.752Z,4.04
2017-05-18T20:22:39.640Z,3.90
2017-05-18T20:25:10.477Z,3.88
2017-05-18T20:27:41.118Z,4.64
2017-05-18T20:30:11.906Z,3.84
2017-05-18T20:32:42.968Z,5.08
2017-05-18T20:35:14.036Z,4.74
2017-05-18T20:37:44.945Z,4.76
2017-05-18T20:40:15.824Z,4.68
2017-05-18T20:42:46.843Z,3.60
2017-05-18T20:45:18.367Z,4.48
2017-05-18T20:47:49.070Z,4.50
2017-05-18T20:50:19.999Z,3.86
2017-05-18T20:52:50.761Z,3.86
2017-05-18T20:55:21.444Z,4.00
2017-05-18T20:57:52.691Z,4.60
2017-05-18T21:00:23.497Z,4.76
2017-05-18T21:02:54.374Z,4.28
2017-05-18T21:05:25.130Z,3.08
2017-05-18T21:07:55.977Z,3.50
2017-05-18T21:10:26.332Z,2.60
2017-05-18T21:12:57.304Z,2.20
2017-05-18T21:15:27.688Z,2.84
2017-05-18T21:17:58.271Z,4.10
2017-05-18T21:20:29.076Z,2.88
2017-05-18T21:22:59.886Z,2.38
2017-05-18T21:25:30.764Z,2.52
2017-05-18T21:28:01.471Z,2.38
2017-05-18T21:30:32.396Z,3.06
2017-05-18T21:33:04.141Z,3.20
2017-05-18T21:35:34.771Z,2.78
2017-05-18T21:38:05.389Z,2.22
2017-05-18T21:40:36.452Z,2.04
2017-05-18T21:43:06.956Z,2.70
2017-05-18T21:45:37.582Z,2.20
2017-05-18T21:48:08.414Z,2.36
2017-05-18T21:50:39.042Z,2.22
2017-05-18T21:53:09.973Z,2.22
2017-05-18T21:55:41.476Z,2.14
2017-05-18T21:58:13.419Z,2.40
2017-05-18T22:00:44.330Z,2.28
2017-05-18T22:03:15.955Z,2.18
2017-05-18T22:05:47.019Z,1.62
2017-05-18T22:08:17.723Z,1.94
2017-05-18T22:10:48.325Z,2.22
2017-05-18T22:13:18.853Z,2.64
2017-05-18T22:15:49.548Z,2.88
2017-05-18T22:18:20.308Z,1.86
2017-05-18T22:20:51.070Z,2.46
2017-05-18T22:23:21.580Z,2.42
2017-05-18T22:25:52.321Z,2.22
2017-05-18T22:28:22.798Z,2.20
2017-05-18T22:30:53.800Z,2.04
2017-05-18T22:33:24.575Z,2.06
2017-05-18T22:35:55.189Z,2.00
2017-05-18T22:38:25.909Z,2.56
2017-05-18T22:40:56.854Z,2.26
2017-05-18T22:43:27.359Z,2.02
2017-05-18T22:45:58.104Z,1.70
2017-05-18T22:48:29.100Z,2.10
2017-05-18T22:51:00.180Z,2.26
2017-05-18T22:53:30.825Z,2.68
2017-05-18T22:56:01.652Z,2.30
2017-05-18T22:58:32.782Z,2.40
2017-05-18T23:01:03.632Z,2.92
2017-05-18T23:03:34.822Z,3.24
2017-05-18T23:06:05.863Z,3.02
2017-05-18T23:08:36.652Z,2.44
2017-05-18T23:11:07.482Z,3.42
2017-05-18T23:13:38.245Z,3.36
2017-05-18T23:18:31.969Z,2.50
2017-05-18T23:21:03.614Z,3.36
2017-05-18T23:23:34.725Z,3.76
2017-05-18T23:26:05.226Z,4.66
2017-05-18T23:28:35.942Z,3.32
2017-05-18T23:31:07.425Z,2.90
2017-05-18T23:33:38.203Z,3.30
2017-05-18T23:36:08.764Z,2.76
2017-05-18T23:38:39.399Z,2.86
2017-05-18T23:41:10.207Z,3.34
2017-05-18T23:43:40.783Z,2.84
2017-05-18T23:46:11.712Z,2.78
2017-05-18T23:48:42.498Z,2.58
2017-05-18T23:51:13.234Z,3.02
2017-05-18T23:53:43.965Z,2.38
2017-05-18T23:56:14.714Z,2.20
2017-05-18T23:58:46.323Z,2.60
